sensor_id;sensor_type;location;lat;lon;timestamp;pressure;altitude;pressure_sealevel;temperature;humidity
39789;BME280;25478;42.626;23.320;2022-11-15T00:01:49;93651.03;;;2.41;91.79
39789;BME280;25478;42.626;23.320;2022-11-15T00:04:33;93635.31;;;2.29;91.42
39789;BME280;25478;42.626;23.320;2022-11-15T00:07:17;93648.28;;;2.37;92.23
39789;BME280;25478;42.626;23.320;2022-11-15T00:10:01;93640.00;;;2.35;91.66
39789;BME280;25478;42.626;23.320;2022-11-15T00:12:45;93637.72;;;2.34;92.02
39789;BME280;25478;42.626;23.320;2022-11-15T00:15:29;93638.03;;;2.32;91.89
39789;BME280;25478;42.626;23.320;2022-11-15T00:18:14;93641.72;;;2.31;92.28
39789;BME280;25478;42.626;23.320;2022-11-15T00:21:05;93629.94;;;2.25;92.43
39789;BME280;25478;42.626;23.320;2022-11-15T00:23:50;93631.94;;;2.28;92.40
39789;BME280;25478;42.626;23.320;2022-11-15T00:26:34;93635.91;;;2.25;92.75
39789;BME280;25478;42.626;23.320;2022-11-15T00:29:18;93632.53;;;2.25;92.84
39789;BME280;25478;42.626;23.320;2022-11-15T00:32:02;93629.50;;;2.23;92.81
39789;BME280;25478;42.626;23.320;2022-11-15T00:34:46;93623.41;;;2.19;92.71
39789;BME280;25478;42.626;23.320;2022-11-15T00:37:29;93622.31;;;2.20;93.19
39789;BME280;25478;42.626;23.320;2022-11-15T00:40:14;93617.72;;;2.17;93.08
39789;BME280;25478;42.626;23.320;2022-11-15T00:43:00;93615.00;;;2.13;93.31
39789;BME280;25478;42.626;23.320;2022-11-15T00:45:44;93615.44;;;2.15;93.48
39789;BME280;25478;42.626;23.320;2022-11-15T00:48:28;93617.59;;;2.13;93.37
39789;BME280;25478;42.626;23.320;2022-11-15T00:51:13;93620.50;;;2.12;93.52
39789;BME280;25478;42.626;23.320;2022-11-15T00:53:57;93626.78;;;2.11;93.06
39789;BME280;25478;42.626;23.320;2022-11-15T00:56:41;93621.09;;;2.09;93.18
39789;BME280;25478;42.626;23.320;2022-11-15T00:59:25;93617.28;;;2.06;93.51
39789;BME280;25478;42.626;23.320;2022-11-15T01:02:08;93602.47;;;2.07;93.70
39789;BME280;25478;42.626;23.320;2022-11-15T01:04:52;93602.78;;;2.05;93.43
39789;BME280;25478;42.626;23.320;2022-11-15T01:07:36;93606.13;;;2.06;93.72
39789;BME280;25478;42.626;23.320;2022-11-15T01:10:20;93591.31;;;1.97;93.80
39789;BME280;25478;42.626;23.320;2022-11-15T01:13:05;93580.19;;;1.88;93.62
39789;BME280;25478;42.626;23.320;2022-11-15T01:15:48;93609.50;;;2.06;93.84
39789;BME280;25478;42.626;23.320;2022-11-15T01:18:32;93590.13;;;1.95;93.76
39789;BME280;25478;42.626;23.320;2022-11-15T01:21:18;93606.13;;;2.06;93.97
39789;BME280;25478;42.626;23.320;2022-11-15T01:24:02;93605.38;;;2.05;93.98
39789;BME280;25478;42.626;23.320;2022-11-15T01:26:47;93595.31;;;2.04;94.26
39789;BME280;25478;42.626;23.320;2022-11-15T01:29:31;93603.09;;;2.04;94.01
39789;BME280;25478;42.626;23.320;2022-11-15T01:32:15;93596.81;;;2.05;94.41
39789;BME280;25478;42.626;23.320;2022-11-15T01:34:58;93600.50;;;2.04;94.32
39789;BME280;25478;42.626;23.320;2022-11-15T01:37:42;93603.69;;;2.01;94.14
39789;BME280;25478;42.626;23.320;2022-11-15T01:40:26;93600.81;;;2.02;94.49
39789;BME280;25478;42.626;23.320;2022-11-15T01:46:43;93597.72;;;2.00;94.04
39789;BME280;25478;42.626;23.320;2022-11-15T01:49:32;93593.31;;;2.01;94.46
39789;BME280;25478;42.626;23.320;2022-11-15T01:52:19;93592.53;;;2.00;94.36
39789;BME280;25478;42.626;23.320;2022-11-15T01:55:10;93591.47;;;2.01;94.24
39789;BME280;25478;42.626;23.320;2022-11-15T01:58:02;93569.34;;;1.86;94.13
39789;BME280;25478;42.626;23.320;2022-11-15T02:00:48;93589.19;;;2.00;94.75
39789;BME280;25478;42.626;23.320;2022-11-15T02:03:44;93590.69;;;2.01;94.70
39789;BME280;25478;42.626;23.320;2022-11-15T02:06:30;93602.16;;;2.00;94.57
39789;BME280;25478;42.626;23.320;2022-11-15T02:09:16;93594.38;;;2.00;94.56
39789;BME280;25478;42.626;23.320;2022-11-15T02:12:00;93592.41;;;1.96;94.82
39789;BME280;25478;42.626;23.320;2022-11-15T02:14:48;93587.53;;;1.95;94.79
39789;BME280;25478;42.626;23.320;2022-11-15T02:17:44;93585.69;;;1.95;94.92
39789;BME280;25478;42.626;23.320;2022-11-15T02:27:27;93580.63;;;1.90;94.93
39789;BME280;25478;42.626;23.320;2022-11-15T02:39:53;93575.63;;;1.85;94.98
39789;BME280;25478;42.626;23.320;2022-11-15T02:42:19;93581.09;;;1.84;95.10
39789;BME280;25478;42.626;23.320;2022-11-15T02:45:27;93571.63;;;1.79;95.19
39789;BME280;25478;42.626;23.320;2022-11-15T02:48:12;93587.22;;;1.79;95.33
39789;BME280;25478;42.626;23.320;2022-11-15T02:50:56;93586.00;;;1.77;95.61
39789;BME280;25478;42.626;23.320;2022-11-15T02:53:41;93577.72;;;1.75;95.49
39789;BME280;25478;42.626;23.320;2022-11-15T02:56:25;93578.03;;;1.73;95.50
39789;BME280;25478;42.626;23.320;2022-11-15T03:05:22;93581.72;;;1.72;95.69
39789;BME280;25478;42.626;23.320;2022-11-15T03:08:22;93581.72;;;1.72;95.82
39789;BME280;25478;42.626;23.320;2022-11-15T03:11:17;93582.78;;;1.71;95.73
39789;BME280;25478;42.626;23.320;2022-11-15T03:14:08;93587.66;;;1.73;95.84
39789;BME280;25478;42.626;23.320;2022-11-15T03:17:26;93589.63;;;1.76;95.95
39789;BME280;25478;42.626;23.320;2022-11-15T03:20:11;93579.25;;;1.76;96.21
39789;BME280;25478;42.626;23.320;2022-11-15T03:23:04;93578.97;;;1.77;95.96
39789;BME280;25478;42.626;23.320;2022-11-15T03:25:50;93572.72;;;1.78;96.09
39789;BME280;25478;42.626;23.320;2022-11-15T03:28:42;93565.06;;;1.73;96.17
39789;BME280;25478;42.626;23.320;2022-11-15T03:31:33;93555.44;;;1.65;95.87
39789;BME280;25478;42.626;23.320;2022-11-15T03:37:46;93567.53;;;1.69;95.86
39789;BME280;25478;42.626;23.320;2022-11-15T03:40:45;93558.50;;;1.67;96.18
39789;BME280;25478;42.626;23.320;2022-11-15T03:43:56;93552.84;;;1.65;95.94
39789;BME280;25478;42.626;23.320;2022-11-15T03:46:52;93555.44;;;1.65;96.28
39789;BME280;25478;42.626;23.320;2022-11-15T03:49:44;93541.72;;;1.64;96.39
39789;BME280;25478;42.626;23.320;2022-11-15T03:52:33;93539.13;;;1.64;96.45
39789;BME280;25478;42.626;23.320;2022-11-15T03:55:20;93536.06;;;1.62;96.07
39789;BME280;25478;42.626;23.320;2022-11-15T03:58:04;93529.06;;;1.54;96.32
39789;BME280;25478;42.626;23.320;2022-11-15T04:00:49;93541.09;;;1.59;96.58
39789;BME280;25478;42.626;23.320;2022-11-15T04:03:33;93541.41;;;1.57;96.80
39789;BME280;25478;42.626;23.320;2022-11-15T04:06:17;93538.81;;;1.57;96.99
39789;BME280;25478;42.626;23.320;2022-11-15T04:09:00;93537.44;;;1.60;96.92
39789;BME280;25478;42.626;23.320;2022-11-15T04:11:44;93539.25;;;1.59;96.70
39789;BME280;25478;42.626;23.320;2022-11-15T04:14:28;93539.13;;;1.56;96.55
39789;BME280;25478;42.626;23.320;2022-11-15T04:17:12;93545.38;;;1.55;97.11
39789;BME280;25478;42.626;23.320;2022-11-15T04:19:56;93523.84;;;1.46;96.69
39789;BME280;25478;42.626;23.320;2022-11-15T04:23:01;93533.03;;;1.52;97.14
39789;BME280;25478;42.626;23.320;2022-11-15T04:26:07;93529.94;;;1.50;97.53
39789;BME280;25478;42.626;23.320;2022-11-15T04:28:51;93531.19;;;1.52;97.49
39789;BME280;25478;42.626;23.320;2022-11-15T04:31:54;93517.28;;;1.57;97.56
39789;BME280;25478;42.626;23.320;2022-11-15T04:34:38;93529.03;;;1.63;97.71
39789;BME280;25478;42.626;23.320;2022-11-15T04:37:22;93535.00;;;1.72;97.89
39789;BME280;25478;42.626;23.320;2022-11-15T04:40:06;93521.88;;;1.77;97.90
39789;BME280;25478;42.626;23.320;2022-11-15T04:42:51;93525.22;;;1.86;98.14
39789;BME280;25478;42.626;23.320;2022-11-15T04:45:35;93532.06;;;1.91;98.18
39789;BME280;25478;42.626;23.320;2022-11-15T04:48:19;93532.22;;;1.94;98.05
39789;BME280;25478;42.626;23.320;2022-11-15T04:51:03;93534.66;;;2.00;97.98
39789;BME280;25478;42.626;23.320;2022-11-15T04:53:47;93536.34;;;2.04;98.87
39789;BME280;25478;42.626;23.320;2022-11-15T04:56:31;93539.50;;;2.10;98.88
39789;BME280;25478;42.626;23.320;2022-11-15T04:59:14;93524.84;;;2.14;99.25
39789;BME280;25478;42.626;23.320;2022-11-15T05:01:58;93524.81;;;2.22;99.44
39789;BME280;25478;42.626;23.320;2022-11-15T05:04:42;93531.53;;;2.23;99.73
39789;BME280;25478;42.626;23.320;2022-11-15T05:07:26;93521.78;;;2.20;99.96
39789;BME280;25478;42.626;23.320;2022-11-15T05:10:10;93528.31;;;2.26;100.00
39789;BME280;25478;42.626;23.320;2022-11-15T05:12:55;93515.34;;;2.18;100.00
39789;BME280;25478;42.626;23.320;2022-11-15T05:15:38;93510.38;;;2.04;100.00
39789;BME280;25478;42.626;23.320;2022-11-15T05:18:22;93533.84;;;2.16;100.00
39789;BME280;25478;42.626;23.320;2022-11-15T05:21:09;93541.97;;;2.15;100.00
39789;BME280;25478;42.626;23.320;2022-11-15T05:23:53;93534.94;;;2.15;100.00
39789;BME280;25478;42.626;23.320;2022-11-15T05:26:37;93535.69;;;2.16;100.00
39789;BME280;25478;42.626;23.320;2022-11-15T05:29:21;93530.94;;;2.18;100.00
39789;BME280;25478;42.626;23.320;2022-11-15T05:32:05;93533.25;;;2.19;100.00
39789;BME280;25478;42.626;23.320;2022-11-15T05:34:49;93534.31;;;2.10;100.00
39789;BME280;25478;42.626;23.320;2022-11-15T05:37:34;93533.84;;;2.16;100.00
39789;BME280;25478;42.626;23.320;2022-11-15T05:40:18;93526.50;;;2.18;100.00
39789;BME280;25478;42.626;23.320;2022-11-15T05:43:04;93532.50;;;2.19;100.00
39789;BME280;25478;42.626;23.320;2022-11-15T05:45:48;93529.56;;;2.20;100.00
39789;BME280;25478;42.626;23.320;2022-11-15T05:48:37;93474.53;;;1.80;100.00
39789;BME280;25478;42.626;23.320;2022-11-15T05:51:24;93535.22;;;2.22;100.00
39789;BME280;25478;42.626;23.320;2022-11-15T05:54:11;93532.63;;;2.22;100.00
39789;BME280;25478;42.626;23.320;2022-11-15T05:56:55;93531.53;;;2.23;100.00
39789;BME280;25478;42.626;23.320;2022-11-15T05:59:39;93512.31;;;2.16;100.00
39789;BME280;25478;42.626;23.320;2022-11-15T06:02:24;93524.81;;;2.31;100.00
39789;BME280;25478;42.626;23.320;2022-11-15T06:05:08;93535.19;;;2.31;100.00
39789;BME280;25478;42.626;23.320;2022-11-15T06:07:52;93528.47;;;2.30;100.00
39789;BME280;25478;42.626;23.320;2022-11-15T06:10:37;93528.59;;;2.34;100.00
39789;BME280;25478;42.626;23.320;2022-11-15T06:13:21;93535.19;;;2.31;100.00
39789;BME280;25478;42.626;23.320;2022-11-15T06:16:05;93540.84;;;2.33;100.00
39789;BME280;25478;42.626;23.320;2022-11-15T06:18:49;93538.84;;;2.39;100.00
39789;BME280;25478;42.626;23.320;2022-11-15T06:21:33;93548.91;;;2.49;100.00
39789;BME280;25478;42.626;23.320;2022-11-15T06:24:17;93546.25;;;2.58;100.00
39789;BME280;25478;42.626;23.320;2022-11-15T06:27:01;93541.19;;;2.70;100.00
39789;BME280;25478;42.626;23.320;2022-11-15T06:29:45;93538.06;;;2.76;100.00
39789;BME280;25478;42.626;23.320;2022-11-15T06:32:29;93535.59;;;2.89;100.00
39789;BME280;25478;42.626;23.320;2022-11-15T06:35:14;93531.16;;;2.89;100.00
39789;BME280;25478;42.626;23.320;2022-11-15T06:38:03;93531.22;;;3.01;100.00
39789;BME280;25478;42.626;23.320;2022-11-15T06:40:47;93531.81;;;3.07;100.00
39789;BME280;25478;42.626;23.320;2022-11-15T06:43:32;93519.13;;;3.05;100.00
39789;BME280;25478;42.626;23.320;2022-11-15T06:46:16;93532.66;;;3.20;100.00
39789;BME280;25478;42.626;23.320;2022-11-15T06:49:00;93534.75;;;3.26;100.00
39789;BME280;25478;42.626;23.320;2022-11-15T06:51:44;93517.81;;;3.20;100.00
39789;BME280;25478;42.626;23.320;2022-11-15T06:54:28;93532.16;;;3.26;100.00
39789;BME280;25478;42.626;23.320;2022-11-15T06:57:11;93535.34;;;3.32;100.00
39789;BME280;25478;42.626;23.320;2022-11-15T06:59:55;93513.16;;;3.26;100.00
39789;BME280;25478;42.626;23.320;2022-11-15T07:02:39;93532.56;;;3.37;100.00
39789;BME280;25478;42.626;23.320;2022-11-15T07:05:23;93529.00;;;3.42;100.00
39789;BME280;25478;42.626;23.320;2022-11-15T07:08:07;93530.13;;;3.53;100.00
39789;BME280;25478;42.626;23.320;2022-11-15T07:10:51;93530.38;;;3.60;100.00
39789;BME280;25478;42.626;23.320;2022-11-15T07:13:36;93510.84;;;3.54;100.00
39789;BME280;25478;42.626;23.320;2022-11-15T07:16:21;93523.16;;;3.65;100.00
39789;BME280;25478;42.626;23.320;2022-11-15T07:19:05;93494.22;;;3.46;100.00
39789;BME280;25478;42.626;23.320;2022-11-15T07:21:49;93517.69;;;3.58;100.00
39789;BME280;25478;42.626;23.320;2022-11-15T07:24:32;93517.38;;;3.60;100.00
39789;BME280;25478;42.626;23.320;2022-11-15T07:27:16;93518.38;;;3.67;100.00
39789;BME280;25478;42.626;23.320;2022-11-15T07:30:00;93518.81;;;3.70;100.00
39789;BME280;25478;42.626;23.320;2022-11-15T07:32:44;93524.59;;;3.75;100.00
39789;BME280;25478;42.626;23.320;2022-11-15T07:35:29;93524.72;;;3.79;100.00
39789;BME280;25478;42.626;23.320;2022-11-15T07:38:13;93530.56;;;3.76;100.00
39789;BME280;25478;42.626;23.320;2022-11-15T07:41:00;93524.19;;;3.85;100.00
39789;BME280;25478;42.626;23.320;2022-11-15T07:43:44;93524.19;;;3.85;100.00
39789;BME280;25478;42.626;23.320;2022-11-15T07:46:28;93521.47;;;3.82;100.00
39789;BME280;25478;42.626;23.320;2022-11-15T07:49:13;93526.38;;;3.83;100.00
39789;BME280;25478;42.626;23.320;2022-11-15T07:51:57;93518.22;;;3.85;100.00
39789;BME280;25478;42.626;23.320;2022-11-15T07:54:41;93524.97;;;3.86;100.00
39789;BME280;25478;42.626;23.320;2022-11-15T07:57:25;93527.25;;;3.87;100.00
39789;BME280;25478;42.626;23.320;2022-11-15T08:00:09;93528.91;;;3.92;100.00
39789;BME280;25478;42.626;23.320;2022-11-15T08:03:04;93522.72;;;3.97;100.00
39789;BME280;25478;42.626;23.320;2022-11-15T08:05:52;93522.16;;;3.91;100.00
39789;BME280;25478;42.626;23.320;2022-11-15T08:08:36;93523.94;;;4.11;100.00
39789;BME280;25478;42.626;23.320;2022-11-15T08:11:20;93487.94;;;4.13;100.00
39789;BME280;25478;42.626;23.320;2022-11-15T08:14:05;93506.34;;;4.41;100.00
39789;BME280;25478;42.626;23.320;2022-11-15T08:16:49;93513.28;;;4.49;100.00
39789;BME280;25478;42.626;23.320;2022-11-15T08:19:33;93512.97;;;4.51;100.00
39789;BME280;25478;42.626;23.320;2022-11-15T08:22:17;93505.81;;;4.48;100.00
39789;BME280;25478;42.626;23.320;2022-11-15T08:25:01;93511.22;;;4.43;100.00
39789;BME280;25478;42.626;23.320;2022-11-15T08:27:45;93506.13;;;4.46;100.00
39789;BME280;25478;42.626;23.320;2022-11-15T08:30:30;93510.59;;;4.46;100.00
39789;BME280;25478;42.626;23.320;2022-11-15T08:33:17;93512.09;;;4.47;100.00
39789;BME280;25478;42.626;23.320;2022-11-15T08:36:01;93508.94;;;4.41;100.00
39789;BME280;25478;42.626;23.320;2022-11-15T08:38:46;93507.94;;;4.34;100.00
39789;BME280;25478;42.626;23.320;2022-11-15T08:41:37;93506.44;;;4.33;100.00
39789;BME280;25478;42.626;23.320;2022-11-15T08:44:21;93505.00;;;4.35;100.00
39789;BME280;25478;42.626;23.320;2022-11-15T08:47:05;93477.94;;;4.15;100.00
39789;BME280;25478;42.626;23.320;2022-11-15T08:49:49;93498.28;;;4.34;100.00
39789;BME280;25478;42.626;23.320;2022-11-15T08:52:33;93491.97;;;4.35;100.00
39789;BME280;25478;42.626;23.320;2022-11-15T08:55:18;93494.38;;;4.40;100.00
39789;BME280;25478;42.626;23.320;2022-11-15T08:58:02;93488.41;;;4.52;100.00
39789;BME280;25478;42.626;23.320;2022-11-15T09:00:46;93479.09;;;4.63;100.00
39789;BME280;25478;42.626;23.320;2022-11-15T09:03:30;93482.56;;;4.79;100.00
39789;BME280;25478;42.626;23.320;2022-11-15T09:06:15;93485.91;;;4.92;100.00
39789;BME280;25478;42.626;23.320;2022-11-15T09:09:00;93473.94;;;5.03;100.00
39789;BME280;25478;42.626;23.320;2022-11-15T09:11:44;93472.94;;;5.20;100.00
39789;BME280;25478;42.626;23.320;2022-11-15T09:14:29;93465.94;;;5.36;100.00
39789;BME280;25478;42.626;23.320;2022-11-15T09:17:13;93454.44;;;5.53;100.00
39789;BME280;25478;42.626;23.320;2022-11-15T09:19:57;93462.16;;;5.62;100.00
39789;BME280;25478;42.626;23.320;2022-11-15T09:22:41;93455.69;;;5.72;100.00
39789;BME280;25478;42.626;23.320;2022-11-15T09:25:25;93455.78;;;5.75;99.82
39789;BME280;25478;42.626;23.320;2022-11-15T09:28:09;93454.69;;;5.76;98.80
39789;BME280;25478;42.626;23.320;2022-11-15T09:30:59;93454.00;;;5.63;98.31
39789;BME280;25478;42.626;23.320;2022-11-15T09:33:44;93454.91;;;5.55;98.93
39789;BME280;25478;42.626;23.320;2022-11-15T09:36:28;93423.75;;;5.34;99.17
39789;BME280;25478;42.626;23.320;2022-11-15T09:39:12;93442.84;;;5.51;99.28
39789;BME280;25478;42.626;23.320;2022-11-15T09:48:40;93412.22;;;5.63;98.36
39789;BME280;25478;42.626;23.320;2022-11-15T09:51:36;93432.69;;;5.77;98.32
39789;BME280;25478;42.626;23.320;2022-11-15T09:56:37;93434.06;;;5.87;97.78
39789;BME280;25478;42.626;23.320;2022-11-15T10:05:01;93422.59;;;5.76;97.23
39789;BME280;25478;42.626;23.320;2022-11-15T10:07:34;93416.44;;;5.84;96.55
39789;BME280;25478;42.626;23.320;2022-11-15T10:10:11;93409.44;;;5.88;96.46
39789;BME280;25478;42.626;23.320;2022-11-15T10:12:44;93401.94;;;5.99;96.39
39789;BME280;25478;42.626;23.320;2022-11-15T10:15:15;93395.59;;;6.15;96.07
39789;BME280;25478;42.626;23.320;2022-11-15T10:20:29;93377.31;;;6.31;95.78
39789;BME280;25478;42.626;23.320;2022-11-15T10:23:05;93382.59;;;6.51;94.62
39789;BME280;25478;42.626;23.320;2022-11-15T10:25:35;93386.59;;;6.64;95.22
39789;BME280;25478;42.626;23.320;2022-11-15T10:30:33;93379.22;;;6.85;94.01
39789;BME280;25478;42.626;23.320;2022-11-15T10:33:08;93381.72;;;6.97;93.66
39789;BME280;25478;42.626;23.320;2022-11-15T10:35:36;93374.28;;;6.99;93.81
39789;BME280;25478;42.626;23.320;2022-11-15T10:38:07;93364.50;;;6.96;92.99
39789;BME280;25478;42.626;23.320;2022-11-15T10:40:34;93366.78;;;6.98;92.96
39789;BME280;25478;42.626;23.320;2022-11-15T10:43:26;93352.41;;;7.08;92.81
39789;BME280;25478;42.626;23.320;2022-11-15T10:45:51;93336.13;;;6.98;92.35
39789;BME280;25478;42.626;23.320;2022-11-15T10:50:45;93348.59;;;7.24;92.51
39789;BME280;25478;42.626;23.320;2022-11-15T10:53:37;93347.34;;;7.38;91.88
39789;BME280;25478;42.626;23.320;2022-11-15T10:56:08;93346.38;;;7.46;91.28
39789;BME280;25478;42.626;23.320;2022-11-15T10:58:49;93342.72;;;7.50;90.71
39789;BME280;25478;42.626;23.320;2022-11-15T11:01:17;93336.63;;;7.46;90.36
39789;BME280;25478;42.626;23.320;2022-11-15T11:03:45;93329.63;;;7.50;90.88
39789;BME280;25478;42.626;23.320;2022-11-15T11:06:14;93335.25;;;7.52;89.92
39789;BME280;25478;42.626;23.320;2022-11-15T11:08:40;93321.47;;;7.55;90.53
39789;BME280;25478;42.626;23.320;2022-11-15T11:11:18;93316.69;;;7.61;90.26
39789;BME280;25478;42.626;23.320;2022-11-15T11:13:43;93313.03;;;7.66;89.76
39789;BME280;25478;42.626;23.320;2022-11-15T11:19:04;93307.84;;;7.69;89.41
39789;BME280;25478;42.626;23.320;2022-11-15T11:28:48;93291.50;;;7.76;88.38
39789;BME280;25478;42.626;23.320;2022-11-15T11:33:41;93282.81;;;7.95;87.70
39789;BME280;25478;42.626;23.320;2022-11-15T11:39:21;93269.94;;;8.12;86.92
39789;BME280;25478;42.626;23.320;2022-11-15T11:41:53;93260.97;;;8.13;86.62
39789;BME280;25478;42.626;23.320;2022-11-15T11:44:57;93264.91;;;8.27;85.82
39789;BME280;25478;42.626;23.320;2022-11-15T11:47:37;93259.59;;;8.23;86.83
39789;BME280;25478;42.626;23.320;2022-11-15T11:50:22;93256.84;;;8.39;85.53
39789;BME280;25478;42.626;23.320;2022-11-15T11:53:01;93258.44;;;8.43;85.09
39789;BME280;25478;42.626;23.320;2022-11-15T11:55:43;93261.41;;;8.42;84.55
39789;BME280;25478;42.626;23.320;2022-11-15T11:58:20;93252.44;;;8.43;83.88
39789;BME280;25478;42.626;23.320;2022-11-15T12:00:55;93248.72;;;8.48;83.40
39789;BME280;25478;42.626;23.320;2022-11-15T12:03:29;93239.03;;;8.52;82.99
39789;BME280;25478;42.626;23.320;2022-11-15T12:06:00;93228.56;;;8.55;83.17
39789;BME280;25478;42.626;23.320;2022-11-15T12:11:49;93218.84;;;8.56;82.77
39789;BME280;25478;42.626;23.320;2022-11-15T12:14:33;93211.50;;;8.68;82.49
39789;BME280;25478;42.626;23.320;2022-11-15T12:17:01;93208.50;;;8.70;82.03
39789;BME280;25478;42.626;23.320;2022-11-15T12:19:27;93218.75;;;8.79;81.70
39789;BME280;25478;42.626;23.320;2022-11-15T12:22:02;93215.09;;;8.90;81.10
39789;BME280;25478;42.626;23.320;2022-11-15T12:24:35;93212.16;;;8.95;80.80
39789;BME280;25478;42.626;23.320;2022-11-15T12:27:19;93205.81;;;8.96;80.73
39789;BME280;25478;42.626;23.320;2022-11-15T12:29:49;93198.28;;;8.95;80.28
39789;BME280;25478;42.626;23.320;2022-11-15T12:32:31;93197.25;;;9.03;80.06
39789;BME280;25478;42.626;23.320;2022-11-15T12:35:00;93187.84;;;9.02;80.37
39789;BME280;25478;42.626;23.320;2022-11-15T12:40:17;93192.84;;;9.14;79.76
39789;BME280;25478;42.626;23.320;2022-11-15T12:45:36;93180.88;;;9.17;79.43
39789;BME280;25478;42.626;23.320;2022-11-15T12:58:58;93171.44;;;9.12;78.73
39789;BME280;25478;42.626;23.320;2022-11-15T13:12:07;93156.31;;;8.98;78.93
39789;BME280;25478;42.626;23.320;2022-11-15T13:17:16;93161.22;;;9.03;78.94
39789;BME280;25478;42.626;23.320;2022-11-15T13:19:43;93157.84;;;9.03;78.48
39789;BME280;25478;42.626;23.320;2022-11-15T13:22:09;93158.59;;;9.03;78.55
39789;BME280;25478;42.626;23.320;2022-11-15T13:24:54;93137.47;;;8.89;79.01
39789;BME280;25478;42.626;23.320;2022-11-15T13:27:20;93145.03;;;8.94;78.99
39789;BME280;25478;42.626;23.320;2022-11-15T13:29:46;93144.19;;;8.87;79.06
39789;BME280;25478;42.626;23.320;2022-11-15T13:32:13;93148.97;;;8.78;79.17
39789;BME280;25478;42.626;23.320;2022-11-15T13:34:43;93147.00;;;8.67;79.63
39789;BME280;25478;42.626;23.320;2022-11-15T13:39:47;93144.88;;;8.43;80.85
39789;BME280;25478;42.626;23.320;2022-11-15T13:42:17;93149.72;;;8.41;81.02
39789;BME280;25478;42.626;23.320;2022-11-15T13:44:57;93154.84;;;8.34;81.59
39789;BME280;25478;42.626;23.320;2022-11-15T13:47:26;93132.13;;;8.15;81.52
39789;BME280;25478;42.626;23.320;2022-11-15T13:49:58;93153.91;;;8.19;82.26
39789;BME280;25478;42.626;23.320;2022-11-15T13:52:34;93147.84;;;8.11;81.93
39789;BME280;25478;42.626;23.320;2022-11-15T13:55:13;93150.75;;;8.06;82.34
39789;BME280;25478;42.626;23.320;2022-11-15T13:57:49;93145.09;;;8.01;82.68
39789;BME280;25478;42.626;23.320;2022-11-15T14:03:26;93143.09;;;7.90;82.67
39789;BME280;25478;42.626;23.320;2022-11-15T14:06:11;93125.59;;;7.72;83.19
39789;BME280;25478;42.626;23.320;2022-11-15T14:08:42;93134.19;;;7.72;83.86
39789;BME280;25478;42.626;23.320;2022-11-15T14:11:22;93129.63;;;7.66;84.65
39789;BME280;25478;42.626;23.320;2022-11-15T14:14:14;93128.34;;;7.56;84.52
39789;BME280;25478;42.626;23.320;2022-11-15T14:16:46;93126.81;;;7.51;85.07
39789;BME280;25478;42.626;23.320;2022-11-15T14:22:29;93126.84;;;7.28;85.68
39789;BME280;25478;42.626;23.320;2022-11-15T14:24:35;93129.78;;;7.23;85.84
39789;BME280;25478;42.626;23.320;2022-11-15T14:27:22;93131.16;;;7.17;86.73
39789;BME280;25478;42.626;23.320;2022-11-15T14:29:48;93136.69;;;7.12;86.75
39789;BME280;25478;42.626;23.320;2022-11-15T14:32:26;93128.78;;;7.09;87.84
39789;BME280;25478;42.626;23.320;2022-11-15T14:34:57;93132.84;;;7.06;87.47
39789;BME280;25478;42.626;23.320;2022-11-15T14:37:26;93129.47;;;7.05;87.90
39789;BME280;25478;42.626;23.320;2022-11-15T14:39:53;93107.88;;;6.89;88.30
39789;BME280;25478;42.626;23.320;2022-11-15T14:42:19;93129.00;;;7.00;88.29
39789;BME280;25478;42.626;23.320;2022-11-15T14:44:45;93138.31;;;6.97;88.77
39789;BME280;25478;42.626;23.320;2022-11-15T14:47:11;93137.91;;;6.95;89.08
39789;BME280;25478;42.626;23.320;2022-11-15T14:49:37;93132.97;;;6.90;89.29
39789;BME280;25478;42.626;23.320;2022-11-15T14:52:22;93129.13;;;6.84;89.04
39789;BME280;25478;42.626;23.320;2022-11-15T14:54:48;93127.50;;;6.76;89.47
39789;BME280;25478;42.626;23.320;2022-11-15T14:57:14;93107.00;;;6.59;89.89
39789;BME280;25478;42.626;23.320;2022-11-15T14:59:39;93126.88;;;6.63;90.46
39789;BME280;25478;42.626;23.320;2022-11-15T15:02:31;93125.59;;;6.54;90.40
39789;BME280;25478;42.626;23.320;2022-11-15T15:04:56;93118.38;;;6.47;90.38
39789;BME280;25478;42.626;23.320;2022-11-15T15:07:26;93130.91;;;6.38;90.67
39789;BME280;25478;42.626;23.320;2022-11-15T15:09:51;93113.47;;;6.23;90.66
39789;BME280;25478;42.626;23.320;2022-11-15T15:12:22;93122.06;;;6.23;91.24
39789;BME280;25478;42.626;23.320;2022-11-15T15:14:49;93118.53;;;6.15;91.80
39789;BME280;25478;42.626;23.320;2022-11-15T15:17:16;93119.16;;;6.09;91.44
39789;BME280;25478;42.626;23.320;2022-11-15T15:19:42;93122.03;;;6.04;92.19
39789;BME280;25478;42.626;23.320;2022-11-15T15:22:14;93122.31;;;5.99;92.10
39789;BME280;25478;42.626;23.320;2022-11-15T15:24:41;93122.16;;;5.91;91.69
39789;BME280;25478;42.626;23.320;2022-11-15T15:27:06;93116.78;;;5.84;92.55
39789;BME280;25478;42.626;23.320;2022-11-15T15:29:32;93114.41;;;5.79;92.71
39789;BME280;25478;42.626;23.320;2022-11-15T15:31:57;93107.88;;;5.70;92.79
39789;BME280;25478;42.626;23.320;2022-11-15T15:34:23;93112.34;;;5.69;92.75
39789;BME280;25478;42.626;23.320;2022-11-15T15:36:48;93108.91;;;5.65;92.88
39789;BME280;25478;42.626;23.320;2022-11-15T15:39:14;93104.69;;;5.60;93.71
39789;BME280;25478;42.626;23.320;2022-11-15T15:41:39;93108.00;;;5.57;93.52
39789;BME280;25478;42.626;23.320;2022-11-15T15:44:05;93114.66;;;5.55;94.08
39789;BME280;25478;42.626;23.320;2022-11-15T15:46:30;93106.41;;;5.53;94.59
39789;BME280;25478;42.626;23.320;2022-11-15T15:48:56;93114.59;;;5.51;94.14
39789;BME280;25478;42.626;23.320;2022-11-15T15:51:21;93111.16;;;5.47;94.17
39789;BME280;25478;42.626;23.320;2022-11-15T15:53:47;93113.00;;;5.47;94.61
39789;BME280;25478;42.626;23.320;2022-11-15T15:56:13;93107.78;;;5.47;94.19
39789;BME280;25478;42.626;23.320;2022-11-15T15:58:38;93101.88;;;5.50;95.18